Ride Results

Jolly Lette Memorial Ride (24-08-2013)
Ride distance: 80.0 km

Outcomes - Jolly Lette Memorial Ride (24-08-2013)
Division No. of Entries Retired / DNE Completed Withdrawn Ineligible V/O Percentage Completed
HW 5 - 5 - - - 100.00%
MW 16 - 13 - - 3 81.25%
LW 8 - 5 - - 3 62.50%
JN 7 - 4 - - 3 57.14%
Totals 36 - 27 - - 9 75.00%
Results - Jolly Lette Memorial Ride (24-08-2013)
No. Rider Horse Place Time Leg Speeds Total
Km/Hr
H/R bpm
Heavyweight
137 John Shoobridge Tex 1 (BC) 6:20:00 12.4, 12.7 12.63 42, 40, 59 (Avg:49)
247 David Pilgrim Brackenlea Samson 2 7:14:00 11.8, 10.3 11.06 41, 54, 57 (Avg:55)
176 Greg Burford DJ Prince 3 7:20:00 11.3, 10.4 10.91 39, 53, 55 (Avg:54)
38 Tony Purton Beer Street Bewitched 4 8:08:00 10.6, 9.1 9.84 40, 43, 47 (Avg:45)
82 Mark Dunn Bella 5 8:15:00 10.2, 9.1 9.70 36, 46, 51 (Avg:48)
Middleweight
264 Ellie Maddick Davlyn Park Camille 1 (BC) 5:02:00 17.5, 14.5 15.89 34, 49, 53 (Avg:51)
156 Sh Saeed bin maktoum Summervale Brian 2 5:54:00 19.0, 10.5 13.56 41, 53, 59 (Avg:56)
15 Sonia Brown-Cordell Lynn-Roy Sharik 3 6:23:00 13.2, 11.8 12.53 40, 45, 50 (Avg:47)
261 Danielle Taylor DVS Jackeroo 4 6:39:00 12.1, 11.9 12.03 40, 47, 49 (Avg:48)
143 Pauline Goodwin Marley Hosanna 5 6:58:00 11.9, 11.0 11.48 37, 38, 44 (Avg:41)
114 Tara Nicklason Kairo 5 6:58:00 12.2, 10.8 11.48 40, 49, 57 (Avg:53)
119 Max Lockhart Davinchi 7 7:14:00 11.9, 10.2 11.06 57, 45, 55 (Avg:50)
263 Linda Pilgrim Willow Valley Majestic 7 7:14:00 11.8, 10.3 11.06 52, 46, 57 (Avg:51)
216 David Evelyn Kalody Park Eclipse 9 7:19:00 12.1, 9.9 10.93 44, 46, 58 (Avg:52)
21 Kylie Williams Hill Stone Nazeem 9 7:19:00 12.1, 9.9 10.93 36, 47, 58 (Avg:52)
199 Hussain Ali AlMarzooqi Burralga Jamieson 11 7:20:00 11.3, 10.4 10.91 34, 51, 53 (Avg:52)
92 Blaine Astell Shemali Marquis 12 7:30:00 11.0, 10.3 10.67 37, 41, 47 (Avg:44)
136 Kaye Mitchell Beer Street Demelza 13 8:08:00 10.6, 9.1 9.84 36, 51, 51 (Avg:51)
274 Johann Willemse Highland View Tarzan Lame L2 0:00:00 11.2, 10.3 - 35, 47, 55 (Avg:51)
262 Carolyn Foley-Jones Badgerlyn Zack Lame L1 0:00:00 19.0 - 38, 53 (Avg:53)
69 Tracey Wyllie AT Dial Range Dakota Lame L1 0:00:00 11.1 - 36, 46 (Avg:46)
Lightweight
22 Tracy-Lee Cossor Conderosa Zeus 1 (BC) 6:20:00 13.4, 11.8 12.63 36, 45, 51 (Avg:48)
265 Annemaree Kelly Yandilla Ultimate Affair 2 7:20:00 11.3, 10.4 10.91 38, 44, 55 (Avg:49)
83 Angie Clark Kalody Park Prysain 3 7:25:00 11.2, 10.3 10.79 40, 48, 60 (Avg:54)
272 Bianca Whitehead Highland View Spirit 3 7:25:00 11.2, 10.3 10.79 30, 44, 49 (Avg:46)
90 Angela Hawks Cameo Arpeggio 5 7:30:00 11.0, 10.3 10.67 50, 52, 57 (Avg:54)
179 Debbie Grull Highland View Moonshine Lame L2 0:00:00 16.9, 11.6 - 37, 52, 58 (Avg:55)
150 Emily Shadbolt Brynddu Idyll Lame L2 0:00:00 17.5, 14.5 - 46, 46, 33 (Avg:39)
203 Ellie Woodhouse Cognac Heart Rate L2 0:00:00 11.1, 10.3 - 39, 47, 62 (Avg:54)
Junior
154 Sarah Parker Moment 1 (BC) 5:27:00 16.9, 12.9 14.68 36, 43, 60 (Avg:51)
127 Jaz Hutchins Highland View Chief 2 6:21:00 12.8, 12.3 12.60 40, 44, 54 (Avg:49)
186 Amelia Napier Mianaibara Angel of the Morning 3 7:28:00 11.1, 10.3 10.71 42, 46, 50 (Avg:48)
249 Bronte Page Charaway Kash 4 22:00:00 2.1, 10.4 3.64 38, 44, 46 (Avg:45)
125 Brooke Brown-Cordell DVS Bradman Lame L2 0:00:00 13.2, 11.9 - 38, 47, 53 (Avg:50)
209 Grace Huxtable Sandine Gidget Lame L2 0:00:00 13.2, 11.9 - 31, 51, 45 (Avg:48)
190 Alice Mitchell Beer Street Willis Lame L2 0:00:00 12.9, 11.5 - 35, 39, 59 (Avg:49)